ROMMA est une association bénévole à but non lucratif. Votre soutien est indispensable : ADHERER à ROMMA ou FAIRE un DON

Crempigny - (74, Haute-Savoie)

Albanais-Montagne des Princes (500 m)   Longitude: 05° 54' 5" E   Latitude: 45° 57' 0" N Station partenaire n°10
 

Détail journalier du     <<     >>

Température Precipitation Humidité Pression Vent Dir Rafale Dir. rafale Ensol.
Heure (°C) (mm) (%) (hPa) (km/h) (km/h) (min)
01:00 15.605810168NNE21NE0
02:00 15.305610169NNE26NNE0
03:00 14.405810178NNO23N0
04:00 13.406210175NNO13N0
05:00 12.606410174N10NNO0
06:00 12.106510175NNO8NNO0
07:00 12.706410174NO10NO0
08:00 13.706210175N15N0
09:00 15.305810179NNE31N30
10:00 17.505510179NNE27NE60
11:00 19.405410178NE23ENE60
12:00 20.605310175NE15NE60
13:00 22.304710174NNE15NNE60
14:00 23.104910163NE11NE60
15:00 25.104510163ENE11NE60
16:00 24.503910164E15NO60
17:00 24.704110155O18ONO60
18:00 23.604810159OSO18O30
19:00 22.5050101512OSO23SO10
20:00 21.2056101511O23ONO0
21:00 20.705410159NO18ONO0
22:00 19.605710163SO15O0
23:00 18.706510173OSO13SSO0
minuit 17.707110183SSE8SSE0

Graphique du 01-06-2020

 

Serveur OMMA